Time;durP1;ratioP1;P1;durP2;ratioP2;P2;SDS_P1;SDS_P2;PMS_P1;PMS_P2;Temp;Humidity;BMP_temperature;BMP_pressure;BME280_temperature;BME280_humidity;BME280_pressure;Samples;Min_cycle;Max_cycle;Signal;HPM_P1;HPM_P2
2021/03/31 00:01:05;;;;;;;1.97;0.47;;;;;;;;;;5008344;28;20283;-58
2021/03/31 00:03:32;;;;;;;0.67;0.43;;;;;;;;;;4982981;28;20236;-58
2021/03/31 00:05:58;;;;;;;1.53;0.63;;;;;;;;;;4952837;28;20766;-59
2021/03/31 00:08:31;;;;;;;0.50;0.50;;;;;;;;;;4943826;28;20224;-61
2021/03/31 00:11:00;;;;;;;0.87;0.30;;;;;;;;;;4969697;28;20178;-58
2021/03/31 00:13:27;;;;;;;2.53;0.50;;;;;;;;;;4954844;28;20734;-58
2021/03/31 00:15:55;;;;;;;0.00;0.00;;;;;;;;;;4953551;28;20231;-58
2021/03/31 00:18:22;;;;;;;3.40;0.70;;;;;;;;;;4944606;28;20491;-58
2021/03/31 00:20:49;;;;;;;0.27;0.27;;;;;;;;;;4949429;28;20210;-58
2021/03/31 00:23:18;;;;;;;0.73;0.37;;;;;;;;;;4954106;28;20198;-58
2021/03/31 00:25:45;;;;;;;1.57;0.97;;;;;;;;;;4955957;28;20190;-58
2021/03/31 00:28:12;;;;;;;0.00;0.00;;;;;;;;;;4954506;28;20189;-58
2021/03/31 00:30:39;;;;;;;0.10;0.10;;;;;;;;;;4956494;28;20186;-58
2021/03/31 00:33:06;;;;;;;0.63;0.40;;;;;;;;;;4955822;28;20186;-58
2021/03/31 00:35:33;;;;;;;0.00;0.00;;;;;;;;;;4951427;28;20190;-58
2021/03/31 00:38:01;;;;;;;1.07;0.83;;;;;;;;;;4956543;28;20186;-58
2021/03/31 00:40:28;;;;;;;0.30;0.30;;;;;;;;;;4951406;28;20252;-58
2021/03/31 00:42:55;;;;;;;2.40;0.93;;;;;;;;;;4955841;28;20712;-58
2021/03/31 00:45:22;;;;;;;0.07;0.07;;;;;;;;;;4955468;28;20185;-58
2021/03/31 00:47:48;;;;;;;0.10;0.10;;;;;;;;;;4955594;28;21013;-58
2021/03/31 00:50:16;;;;;;;2.70;0.53;;;;;;;;;;4956686;28;20229;-58
2021/03/31 00:52:43;;;;;;;0.13;0.07;;;;;;;;;;4955367;28;20200;-58
2021/03/31 00:55:11;;;;;;;0.00;0.00;;;;;;;;;;4953614;28;20355;-58
2021/03/31 00:57:38;;;;;;;2.50;0.40;;;;;;;;;;4953525;28;20856;-58
2021/03/31 01:00:06;;;;;;;0.00;0.00;;;;;;;;;;4953600;28;20324;-58
2021/03/31 01:02:35;;;;;;;2.43;0.43;;;;;;;;;;4954793;28;20190;-58
2021/03/31 01:05:02;;;;;;;0.00;0.00;;;;;;;;;;4955027;28;20652;-58
2021/03/31 01:07:30;;;;;;;0.20;0.20;;;;;;;;;;4955713;28;20213;-58
2021/03/31 01:09:56;;;;;;;0.40;0.20;;;;;;;;;;4955511;28;20194;-58
2021/03/31 01:12:41;;;;;;;0.60;0.43;;;;;;;;;;4956282;28;20281;-58
2021/03/31 01:15:15;;;;;;;3.30;0.73;;;;;;;;;;4954932;28;20200;-58
2021/03/31 01:17:44;;;;;;;0.10;0.10;;;;;;;;;;4955612;28;20237;-58
2021/03/31 01:20:10;;;;;;;0.37;0.37;;;;;;;;;;4951754;28;20238;-58
2021/03/31 01:22:55;;;;;;;4.33;1.20;;;;;;;;;;4955441;28;20195;-57
2021/03/31 01:25:40;;;;;;;1.00;0.53;;;;;;;;;;4955701;28;20507;-58
2021/03/31 01:28:25;;;;;;;2.00;1.03;;;;;;;;;;4955138;28;20197;-58
2021/03/31 01:31:00;;;;;;;5.33;1.83;;;;;;;;;;4954050;28;20254;-58
2021/03/31 01:33:38;;;;;;;2.20;0.63;;;;;;;;;;4948516;28;20317;-58
2021/03/31 01:36:06;;;;;;;0.00;0.00;;;;;;;;;;4954407;28;20228;-58
2021/03/31 01:38:33;;;;;;;0.33;0.13;;;;;;;;;;4955417;28;20699;-58
2021/03/31 01:41:02;;;;;;;0.00;0.00;;;;;;;;;;4953043;28;20202;-58
2021/03/31 01:43:30;;;;;;;0.73;0.73;;;;;;;;;;4950708;28;20632;-58
2021/03/31 01:45:57;;;;;;;68.47;4.63;;;;;;;;;;4953058;28;20728;-58
2021/03/31 01:48:28;;;;;;;0.63;0.63;;;;;;;;;;4953577;28;20202;-58
2021/03/31 01:50:59;;;;;;;2.63;0.40;;;;;;;;;;4948264;28;20512;-58
2021/03/31 01:53:28;;;;;;;6.50;1.20;;;;;;;;;;4951417;28;20201;-58
2021/03/31 01:55:56;;;;;;;0.10;0.10;;;;;;;;;;4954501;28;20264;-58
2021/03/31 01:58:23;;;;;;;0.47;0.47;;;;;;;;;;4952510;28;20240;-58
2021/03/31 02:00:51;;;;;;;0.37;0.37;;;;;;;;;;4953818;28;20692;-58
2021/03/31 02:03:19;;;;;;;2.57;1.20;;;;;;;;;;4954217;28;20193;-58
2021/03/31 02:05:46;;;;;;;1.00;0.57;;;;;;;;;;4953918;28;20210;-57
2021/03/31 02:08:13;;;;;;;2.10;0.30;;;;;;;;;;4954812;28;20198;-58
2021/03/31 02:10:41;;;;;;;7.53;1.43;;;;;;;;;;4955100;28;20193;-57
2021/03/31 02:13:09;;;;;;;0.00;0.00;;;;;;;;;;4954115;28;20229;-57
2021/03/31 02:15:39;;;;;;;0.00;0.00;;;;;;;;;;4954892;28;20750;-57
2021/03/31 02:18:10;;;;;;;4.60;1.37;;;;;;;;;;4970385;28;20492;-57
2021/03/31 02:20:36;;;;;;;1.73;0.77;;;;;;;;;;4954884;28;20222;-58
2021/03/31 02:23:04;;;;;;;0.40;0.40;;;;;;;;;;4954835;28;20324;-57
2021/03/31 02:25:32;;;;;;;0.00;0.00;;;;;;;;;;4955452;28;20185;-58
2021/03/31 02:27:58;;;;;;;0.00;0.00;;;;;;;;;;4955588;28;20190;-58
2021/03/31 02:30:27;;;;;;;0.00;0.00;;;;;;;;;;4959178;28;20842;-58
2021/03/31 02:32:56;;;;;;;0.47;0.37;;;;;;;;;;4958997;28;20654;-58
2021/03/31 02:35:24;;;;;;;0.00;0.00;;;;;;;;;;4957321;28;20199;-57
2021/03/31 02:37:55;;;;;;;1.00;0.40;;;;;;;;;;4959008;28;20337;-57
2021/03/31 02:40:22;;;;;;;0.00;0.00;;;;;;;;;;4957880;28;20957;-58
2021/03/31 02:42:50;;;;;;;0.10;0.10;;;;;;;;;;4957549;28;20206;-57
2021/03/31 02:45:19;;;;;;;0.20;0.20;;;;;;;;;;4959172;28;20810;-57
2021/03/31 02:47:47;;;;;;;0.93;0.80;;;;;;;;;;4958596;28;20584;-57
2021/03/31 02:50:15;;;;;;;2.13;1.73;;;;;;;;;;4959447;28;20816;-57
2021/03/31 02:52:44;;;;;;;0.10;0.10;;;;;;;;;;4957667;28;20197;-58
2021/03/31 02:55:11;;;;;;;0.10;0.10;;;;;;;;;;4958902;28;20332;-58
2021/03/31 02:57:38;;;;;;;5.20;0.97;;;;;;;;;;4958415;28;20194;-57
2021/03/31 03:00:05;;;;;;;3.67;0.57;;;;;;;;;;4957232;28;20209;-58
2021/03/31 03:02:32;;;;;;;0.00;0.00;;;;;;;;;;4954809;28;20273;-57
2021/03/31 03:05:01;;;;;;;6.03;2.43;;;;;;;;;;4952128;28;21193;-57
2021/03/31 03:07:28;;;;;;;0.40;0.40;;;;;;;;;;4955453;28;20194;-58
2021/03/31 03:09:55;;;;;;;0.90;0.77;;;;;;;;;;4959814;28;20190;-58
2021/03/31 03:12:23;;;;;;;0.23;0.23;;;;;;;;;;4956462;28;21047;-58
2021/03/31 03:14:52;;;;;;;2.63;0.97;;;;;;;;;;4957168;28;20697;-57
2021/03/31 03:17:19;;;;;;;0.20;0.20;;;;;;;;;;4961931;28;20544;-57
2021/03/31 03:19:45;;;;;;;0.10;0.10;;;;;;;;;;4958413;28;20244;-58
2021/03/31 03:22:13;;;;;;;1.67;1.60;;;;;;;;;;4959164;28;20644;-57
2021/03/31 03:24:42;;;;;;;0.40;0.37;;;;;;;;;;4958630;28;20187;-57
2021/03/31 03:27:12;;;;;;;0.70;0.60;;;;;;;;;;4959052;28;20186;-57
2021/03/31 03:29:39;;;;;;;0.70;0.70;;;;;;;;;;4959270;28;20198;-57
2021/03/31 03:32:06;;;;;;;0.80;0.50;;;;;;;;;;4957836;28;21024;-57
2021/03/31 03:34:33;;;;;;;15.27;2.27;;;;;;;;;;4956373;28;20340;-57
2021/03/31 03:37:00;;;;;;;0.20;0.10;;;;;;;;;;4958221;28;20185;-57
2021/03/31 03:39:26;;;;;;;1.90;1.17;;;;;;;;;;4958743;28;20209;-57
2021/03/31 03:41:53;;;;;;;0.20;0.20;;;;;;;;;;4957070;28;20190;-57
2021/03/31 03:44:20;;;;;;;0.03;0.03;;;;;;;;;;4958659;28;20197;-57
2021/03/31 03:46:49;;;;;;;0.40;0.40;;;;;;;;;;4958111;28;20744;-57
2021/03/31 03:49:15;;;;;;;7.23;3.20;;;;;;;;;;4957822;28;20678;-57
2021/03/31 03:51:42;;;;;;;0.10;0.10;;;;;;;;;;4957926;28;20197;-57
2021/03/31 03:54:10;;;;;;;1.40;1.30;;;;;;;;;;4957571;28;20627;-58
2021/03/31 03:56:37;;;;;;;0.00;0.00;;;;;;;;;;4958438;28;20194;-57
2021/03/31 03:59:19;;;;;;;27.80;2.23;;;;;;;;;;4958085;28;20210;-57
2021/03/31 04:01:46;;;;;;;7.00;1.33;;;;;;;;;;4953838;28;20186;-57
2021/03/31 04:04:13;;;;;;;0.70;0.70;;;;;;;;;;4956258;28;20197;-57
2021/03/31 04:06:39;;;;;;;0.00;0.00;;;;;;;;;;4957393;28;20293;-58
2021/03/31 04:09:06;;;;;;;0.10;0.10;;;;;;;;;;4958232;28;20181;-57
2021/03/31 04:11:54;;;;;;;0.07;0.07;;;;;;;;;;4957580;28;20273;-58
2021/03/31 04:14:20;;;;;;;0.00;0.00;;;;;;;;;;4957347;28;20288;-58
2021/03/31 04:16:48;;;;;;;3.17;1.03;;;;;;;;;;4957620;28;20189;-58
2021/03/31 04:19:16;;;;;;;0.10;0.10;;;;;;;;;;4957547;28;20261;-58
2021/03/31 04:21:43;;;;;;;0.10;0.10;;;;;;;;;;4958184;28;20186;-57
2021/03/31 04:24:15;;;;;;;0.97;0.77;;;;;;;;;;4956329;28;20518;-57
2021/03/31 04:26:43;;;;;;;0.20;0.20;;;;;;;;;;4957223;28;20186;-58
2021/03/31 04:29:11;;;;;;;0.10;0.10;;;;;;;;;;4971059;28;20194;-57
2021/03/31 04:31:38;;;;;;;2.33;0.83;;;;;;;;;;4957779;28;20193;-58
2021/03/31 04:34:06;;;;;;;0.10;0.10;;;;;;;;;;4957192;28;20186;-58
2021/03/31 04:36:33;;;;;;;2.20;1.60;;;;;;;;;;4958293;28;20190;-58
2021/03/31 04:39:02;;;;;;;0.07;0.07;;;;;;;;;;4957060;28;20272;-57
2021/03/31 04:41:28;;;;;;;1.13;1.03;;;;;;;;;;4954512;28;20194;-57
2021/03/31 04:43:55;;;;;;;3.80;1.10;;;;;;;;;;4955383;28;20197;-58
2021/03/31 04:46:21;;;;;;;3.90;0.63;;;;;;;;;;4955709;28;20255;-57
2021/03/31 04:48:48;;;;;;;2.47;1.80;;;;;;;;;;4956057;28;20186;-59
2021/03/31 04:51:14;;;;;;;0.20;0.20;;;;;;;;;;4957011;28;20208;-57
2021/03/31 04:53:41;;;;;;;5.70;1.30;;;;;;;;;;4956680;28;20205;-58
2021/03/31 04:56:07;;;;;;;0.33;0.33;;;;;;;;;;4957005;28;20182;-58
2021/03/31 04:58:34;;;;;;;0.10;0.10;;;;;;;;;;4955892;28;20181;-58
2021/03/31 05:01:01;;;;;;;0.30;0.30;;;;;;;;;;4953614;28;20284;-57
2021/03/31 05:03:29;;;;;;;0.13;0.13;;;;;;;;;;4952466;28;20198;-57
2021/03/31 05:05:55;;;;;;;10.80;1.30;;;;;;;;;;4954583;28;20297;-58
2021/03/31 05:08:22;;;;;;;0.17;0.17;;;;;;;;;;4954531;28;20182;-57
2021/03/31 05:10:48;;;;;;;0.00;0.00;;;;;;;;;;4955068;28;20284;-58
2021/03/31 05:13:15;;;;;;;0.17;0.17;;;;;;;;;;4953555;28;20414;-58
2021/03/31 05:15:42;;;;;;;1.13;1.03;;;;;;;;;;4954601;28;20209;-57
2021/03/31 05:18:08;;;;;;;0.00;0.00;;;;;;;;;;4952719;28;20193;-58
2021/03/31 05:20:35;;;;;;;0.20;0.20;;;;;;;;;;4955087;28;20240;-58
2021/03/31 05:23:02;;;;;;;0.10;0.10;;;;;;;;;;4956218;28;20748;-58
2021/03/31 05:25:28;;;;;;;3.60;2.20;;;;;;;;;;4957219;28;20216;-57
2021/03/31 05:27:55;;;;;;;1.30;0.80;;;;;;;;;;4956891;28;20188;-57
2021/03/31 05:30:22;;;;;;;0.20;0.20;;;;;;;;;;4956667;28;20193;-58
2021/03/31 05:32:49;;;;;;;0.50;0.47;;;;;;;;;;4955720;28;20898;-57
2021/03/31 05:35:15;;;;;;;2.23;2.13;;;;;;;;;;4954065;28;20194;-57
2021/03/31 05:37:42;;;;;;;0.23;0.20;;;;;;;;;;4955935;28;20337;-58
2021/03/31 05:40:12;;;;;;;0.10;0.10;;;;;;;;;;4956211;28;20467;-57
2021/03/31 05:42:39;;;;;;;0.03;0.03;;;;;;;;;;4954232;28;20197;-57
2021/03/31 05:45:07;;;;;;;0.87;0.77;;;;;;;;;;4955744;28;20541;-57
2021/03/31 05:47:39;;;;;;;0.90;0.30;;;;;;;;;;4955777;28;20197;-58
2021/03/31 05:50:07;;;;;;;0.00;0.00;;;;;;;;;;4956345;28;20192;-57
2021/03/31 05:52:34;;;;;;;0.10;0.10;;;;;;;;;;4953910;28;20241;-57
2021/03/31 05:55:01;;;;;;;1.47;1.37;;;;;;;;;;4954904;28;20190;-57
2021/03/31 05:57:31;;;;;;;1.50;1.30;;;;;;;;;;4954578;28;20187;-58
2021/03/31 05:59:58;;;;;;;3.80;0.97;;;;;;;;;;4953333;28;20205;-58
2021/03/31 06:02:24;;;;;;;12.93;2.47;;;;;;;;;;4956971;28;20762;-57
2021/03/31 06:04:54;;;;;;;0.00;0.00;;;;;;;;;;4959671;28;20258;-58
2021/03/31 06:07:20;;;;;;;1.50;1.30;;;;;;;;;;4957286;28;20175;-57
2021/03/31 06:10:06;;;;;;;2.97;0.53;;;;;;;;;;4956390;28;20273;-57
2021/03/31 06:12:34;;;;;;;2.70;0.90;;;;;;;;;;4957994;28;20189;-57
2021/03/31 06:15:16;;;;;;;0.00;0.00;;;;;;;;;;4959025;28;20186;-58
2021/03/31 06:17:51;;;;;;;0.47;0.47;;;;;;;;;;4958804;28;20730;-57
2021/03/31 06:20:37;;;;;;;0.00;0.00;;;;;;;;;;4958751;28;20232;-58
2021/03/31 06:23:23;;;;;;;6.83;2.00;;;;;;;;;;4957039;28;20189;-57
2021/03/31 06:26:02;;;;;;;0.40;0.40;;;;;;;;;;4957562;28;20273;-57
2021/03/31 06:28:29;;;;;;;0.50;0.50;;;;;;;;;;4958699;28;20185;-57
2021/03/31 06:31:09;;;;;;;0.77;0.77;;;;;;;;;;4958365;28;20280;-58
2021/03/31 06:33:36;;;;;;;2.53;0.63;;;;;;;;;;4956593;28;20182;-58
2021/03/31 06:36:02;;;;;;;0.93;0.60;;;;;;;;;;4959488;28;20280;-57
2021/03/31 06:38:30;;;;;;;0.47;0.40;;;;;;;;;;4973485;28;20178;-58
2021/03/31 06:41:00;;;;;;;0.10;0.10;;;;;;;;;;4957964;28;20217;-57
2021/03/31 06:43:36;;;;;;;0.20;0.20;;;;;;;;;;4957521;28;20235;-57
2021/03/31 06:46:07;;;;;;;3.40;2.33;;;;;;;;;;4958735;28;20264;-58
2021/03/31 06:48:36;;;;;;;0.30;0.30;;;;;;;;;;4956985;28;20197;-57
2021/03/31 06:51:03;;;;;;;0.70;0.53;;;;;;;;;;4958330;28;20214;-58
2021/03/31 06:53:31;;;;;;;8.03;2.00;;;;;;;;;;4973330;28;21388;-58
2021/03/31 06:55:58;;;;;;;1.30;1.30;;;;;;;;;;4958732;28;20193;-58
2021/03/31 06:58:25;;;;;;;1.70;1.13;;;;;;;;;;4957361;28;20627;-58
2021/03/31 07:00:51;;;;;;;2.17;1.80;;;;;;;;;;4956861;28;20213;-58
2021/03/31 07:03:19;;;;;;;0.57;0.33;;;;;;;;;;4958189;28;20663;-57
2021/03/31 07:05:46;;;;;;;0.10;0.10;;;;;;;;;;4955412;28;20193;-58
2021/03/31 07:08:16;;;;;;;0.80;0.80;;;;;;;;;;4958770;28;20209;-57
2021/03/31 07:10:53;;;;;;;5.83;1.07;;;;;;;;;;4955751;28;21019;-57
2021/03/31 07:13:28;;;;;;;12.33;1.23;;;;;;;;;;4961549;28;20289;-58
2021/03/31 07:15:56;;;;;;;0.57;0.57;;;;;;;;;;4956477;28;20192;-58
2021/03/31 07:18:23;;;;;;;2.03;1.37;;;;;;;;;;4957076;28;20373;-58
2021/03/31 07:20:50;;;;;;;0.93;0.93;;;;;;;;;;4958247;28;20990;-58
2021/03/31 07:23:17;;;;;;;3.90;0.73;;;;;;;;;;4958447;28;20220;-57
2021/03/31 07:25:43;;;;;;;8.53;1.53;;;;;;;;;;4958643;28;20663;-57
2021/03/31 07:28:11;;;;;;;1.33;1.07;;;;;;;;;;4956988;28;20240;-57
2021/03/31 07:30:38;;;;;;;5.30;0.73;;;;;;;;;;4957368;28;20193;-57
2021/03/31 07:33:05;;;;;;;2.07;0.50;;;;;;;;;;4955443;28;20527;-58
2021/03/31 07:35:36;;;;;;;3.40;1.00;;;;;;;;;;4957879;28;20221;-57
2021/03/31 07:38:04;;;;;;;0.47;0.40;;;;;;;;;;4957815;28;20197;-58
2021/03/31 07:40:31;;;;;;;0.57;0.40;;;;;;;;;;4957248;28;20542;-57
2021/03/31 07:43:02;;;;;;;0.00;0.00;;;;;;;;;;4957517;28;20604;-58
2021/03/31 07:45:31;;;;;;;1.23;1.03;;;;;;;;;;4957319;28;20201;-57
2021/03/31 07:47:57;;;;;;;0.23;0.23;;;;;;;;;;4956401;28;20533;-57
2021/03/31 07:50:24;;;;;;;8.20;1.40;;;;;;;;;;4955285;28;20940;-58
2021/03/31 07:52:55;;;;;;;4.13;0.70;;;;;;;;;;4957451;28;20205;-58
2021/03/31 07:55:34;;;;;;;3.20;1.53;;;;;;;;;;4957358;28;20224;-57
2021/03/31 07:58:19;;;;;;;1.60;0.77;;;;;;;;;;4958288;28;20235;-58
2021/03/31 08:00:49;;;;;;;3.27;1.00;;;;;;;;;;4954146;28;20216;-57
2021/03/31 08:03:16;;;;;;;0.30;0.30;;;;;;;;;;4956709;28;20196;-57
2021/03/31 08:06:02;;;;;;;2.00;1.20;;;;;;;;;;4956114;28;21217;-57
2021/03/31 08:08:29;;;;;;;0.43;0.40;;;;;;;;;;4956212;28;20290;-58
2021/03/31 08:10:56;;;;;;;0.50;0.50;;;;;;;;;;4957607;28;20188;-58
2021/03/31 08:13:26;;;;;;;8.53;0.87;;;;;;;;;;4957601;28;20247;-58
2021/03/31 08:15:53;;;;;;;14.97;1.87;;;;;;;;;;4956137;28;20389;-57
2021/03/31 08:18:20;;;;;;;0.23;0.23;;;;;;;;;;4969777;28;20197;-57
2021/03/31 08:20:48;;;;;;;4.37;0.83;;;;;;;;;;4955297;28;20247;-57
2021/03/31 08:23:15;;;;;;;3.13;0.57;;;;;;;;;;4953830;28;20193;-58
2021/03/31 08:25:41;;;;;;;6.20;0.93;;;;;;;;;;4955690;28;20204;-57
2021/03/31 08:28:09;;;;;;;0.37;0.37;;;;;;;;;;4954263;28;20233;-57
2021/03/31 08:30:37;;;;;;;3.40;1.07;;;;;;;;;;4955579;28;20181;-57
2021/03/31 08:33:04;;;;;;;1.37;1.20;;;;;;;;;;4954178;28;21028;-57
2021/03/31 08:35:31;;;;;;;0.20;0.20;;;;;;;;;;4956470;28;20269;-57
2021/03/31 08:37:58;;;;;;;1.33;0.90;;;;;;;;;;4956149;28;20180;-57
2021/03/31 08:40:33;;;;;;;1.97;0.47;;;;;;;;;;4954824;28;20268;-57
2021/03/31 08:43:01;;;;;;;0.97;0.97;;;;;;;;;;4954951;28;20183;-57
2021/03/31 08:45:30;;;;;;;0.27;0.13;;;;;;;;;;4955679;28;20532;-57
2021/03/31 08:47:58;;;;;;;1.93;1.53;;;;;;;;;;4955600;28;20185;-57
2021/03/31 08:50:26;;;;;;;4.03;1.67;;;;;;;;;;4955523;28;20220;-57
2021/03/31 08:53:03;;;;;;;2.97;0.93;;;;;;;;;;4955454;28;20189;-57
2021/03/31 08:55:30;;;;;;;0.00;0.00;;;;;;;;;;4953220;28;20186;-57
2021/03/31 08:57:57;;;;;;;1.40;0.73;;;;;;;;;;4954123;28;20195;-57
2021/03/31 09:00:24;;;;;;;1.43;1.10;;;;;;;;;;4953467;28;20216;-57
2021/03/31 09:02:50;;;;;;;0.10;0.10;;;;;;;;;;4951778;28;20181;-58
2021/03/31 09:05:17;;;;;;;4.57;4.33;;;;;;;;;;4954761;28;20297;-57
2021/03/31 09:07:43;;;;;;;9.40;1.90;;;;;;;;;;4955453;28;20208;-57
2021/03/31 09:10:13;;;;;;;1.93;0.77;;;;;;;;;;4955657;28;20909;-57
2021/03/31 09:12:39;;;;;;;2.07;0.60;;;;;;;;;;4953500;28;20212;-57
2021/03/31 09:15:06;;;;;;;1.37;0.43;;;;;;;;;;4952163;28;20188;-57
2021/03/31 09:17:34;;;;;;;3.43;0.73;;;;;;;;;;4954770;28;20430;-57
2021/03/31 09:20:02;;;;;;;1.17;0.90;;;;;;;;;;4954775;28;20221;-57
2021/03/31 09:22:30;;;;;;;1.07;0.67;;;;;;;;;;4955513;28;20207;-57
2021/03/31 09:24:58;;;;;;;0.40;0.10;;;;;;;;;;4955351;28;20193;-57
2021/03/31 09:27:29;;;;;;;8.80;1.37;;;;;;;;;;4953905;28;20811;-57
2021/03/31 09:29:58;;;;;;;0.67;0.67;;;;;;;;;;4951890;28;20425;-57
2021/03/31 09:32:29;;;;;;;0.67;0.33;;;;;;;;;;4954008;28;20206;-57
2021/03/31 09:34:56;;;;;;;0.10;0.10;;;;;;;;;;4954757;28;20199;-58
2021/03/31 09:37:22;;;;;;;0.30;0.30;;;;;;;;;;4959505;28;20192;-57
2021/03/31 09:39:49;;;;;;;5.70;2.23;;;;;;;;;;4957709;28;20303;-57
2021/03/31 09:42:21;;;;;;;0.30;0.30;;;;;;;;;;4959442;28;20178;-57
2021/03/31 09:44:49;;;;;;;0.73;0.50;;;;;;;;;;4958337;28;20595;-57
2021/03/31 09:47:16;;;;;;;0.60;0.60;;;;;;;;;;4957898;28;20620;-57
2021/03/31 09:49:44;;;;;;;2.13;1.10;;;;;;;;;;4955466;28;20217;-57
2021/03/31 09:52:11;;;;;;;1.53;0.63;;;;;;;;;;4957840;28;20228;-58
2021/03/31 09:54:38;;;;;;;5.03;0.70;;;;;;;;;;4958655;28;20204;-58
2021/03/31 09:57:05;;;;;;;21.23;2.40;;;;;;;;;;4958261;28;20214;-57
2021/03/31 09:59:32;;;;;;;0.20;0.20;;;;;;;;;;4959200;28;20213;-58
2021/03/31 10:02:00;;;;;;;2.20;1.53;;;;;;;;;;4957032;28;20259;-58
2021/03/31 10:04:28;;;;;;;1.90;0.73;;;;;;;;;;4957030;28;20327;-58
2021/03/31 10:07:15;;;;;;;3.27;0.40;;;;;;;;;;4956880;28;20285;-57
2021/03/31 13:35:05;;;;;;;1.80;1.00;;;;;;;;;;5046907;28;20271;-57
2021/03/31 13:37:44;;;;;;;0.10;0.10;;;;;;;;;;5048047;28;20220;-57
2021/03/31 13:40:11;;;;;;;5.23;0.50;;;;;;;;;;5050828;28;20900;-57
2021/03/31 13:42:38;;;;;;;0.93;0.43;;;;;;;;;;5049824;28;20922;-57
2021/03/31 13:45:06;;;;;;;3.93;1.80;;;;;;;;;;5054555;28;20191;-57
2021/03/31 13:47:39;;;;;;;3.67;0.67;;;;;;;;;;5055895;28;20281;-57
2021/03/31 13:50:06;;;;;;;2.20;0.87;;;;;;;;;;5050721;28;20194;-56
2021/03/31 13:52:37;;;;;;;2.83;0.50;;;;;;;;;;5051678;28;20191;-57
2021/03/31 13:55:09;;;;;;;9.13;3.83;;;;;;;;;;5050840;28;20193;-57
2021/03/31 13:57:39;;;;;;;10.13;0.83;;;;;;;;;;5044092;28;21079;-57
2021/03/31 14:00:07;;;;;;;3.20;0.57;;;;;;;;;;5029717;28;20180;-57
2021/03/31 14:02:33;;;;;;;1.30;1.20;;;;;;;;;;5022628;28;20904;-57
2021/03/31 14:05:00;;;;;;;1.50;1.40;;;;;;;;;;5022363;28;20299;-56
2021/03/31 14:07:27;;;;;;;0.63;0.40;;;;;;;;;;5022458;28;20203;-56
2021/03/31 14:09:53;;;;;;;1.20;0.63;;;;;;;;;;5020530;28;20213;-57
2021/03/31 14:12:20;;;;;;;0.63;0.63;;;;;;;;;;5023622;28;20298;-57
2021/03/31 14:14:48;;;;;;;1.07;0.47;;;;;;;;;;5022853;28;22305;-56
2021/03/31 14:17:15;;;;;;;0.07;0.07;;;;;;;;;;5025249;28;20723;-57
2021/03/31 14:19:43;;;;;;;0.70;0.40;;;;;;;;;;5024180;28;20184;-57
2021/03/31 14:22:10;;;;;;;0.00;0.00;;;;;;;;;;5025926;28;20233;-57
2021/03/31 14:24:38;;;;;;;2.20;0.57;;;;;;;;;;5023128;28;20253;-57
2021/03/31 14:27:05;;;;;;;2.33;0.87;;;;;;;;;;5026031;28;20711;-57
2021/03/31 14:29:31;;;;;;;0.00;0.00;;;;;;;;;;5025020;28;20688;-57
2021/03/31 14:31:58;;;;;;;6.67;0.57;;;;;;;;;;5024922;28;20637;-57
2021/03/31 14:34:25;;;;;;;2.37;0.73;;;;;;;;;;5020514;28;20190;-56
2021/03/31 14:36:51;;;;;;;0.67;0.17;;;;;;;;;;5027188;28;20292;-57
2021/03/31 14:39:18;;;;;;;1.60;0.70;;;;;;;;;;5023637;28;20199;-57
2021/03/31 14:41:45;;;;;;;0.40;0.40;;;;;;;;;;5014434;28;20187;-57
2021/03/31 14:44:12;;;;;;;0.87;0.50;;;;;;;;;;5013263;28;20188;-56
2021/03/31 14:46:40;;;;;;;1.30;0.17;;;;;;;;;;5012006;28;20185;-57
2021/03/31 14:49:10;;;;;;;0.00;0.00;;;;;;;;;;5012291;28;20541;-57
2021/03/31 14:57:16;;;;;;;1.27;0.30;;;;;;;;;;5011518;28;20288;-57
2021/03/31 14:59:45;;;;;;;0.73;0.07;;;;;;;;;;5014531;28;20223;-56
2021/03/31 15:02:13;;;;;;;0.00;0.00;;;;;;;;;;5014355;28;20267;-57
2021/03/31 15:04:42;;;;;;;0.77;0.27;;;;;;;;;;5013375;28;20935;-57
2021/03/31 15:07:09;;;;;;;0.33;0.27;;;;;;;;;;5014755;28;20828;-57
2021/03/31 15:09:36;;;;;;;1.17;1.07;;;;;;;;;;5014150;28;20194;-57
2021/03/31 15:12:03;;;;;;;0.00;0.00;;;;;;;;;;5012826;28;20202;-57
2021/03/31 15:14:30;;;;;;;0.00;0.00;;;;;;;;;;5012356;28;20186;-57
2021/03/31 15:16:57;;;;;;;0.10;0.10;;;;;;;;;;5013435;28;20855;-58
2021/03/31 15:19:33;;;;;;;0.80;0.70;;;;;;;;;;5012853;28;20187;-57
2021/03/31 15:22:15;;;;;;;0.10;0.00;;;;;;;;;;5014775;28;20191;-56
2021/03/31 15:24:42;;;;;;;5.07;0.60;;;;;;;;;;5014570;28;20184;-57
2021/03/31 15:27:09;;;;;;;0.00;0.00;;;;;;;;;;5014161;28;20688;-57
2021/03/31 15:29:35;;;;;;;0.00;0.00;;;;;;;;;;5013461;28;20187;-57
2021/03/31 15:32:02;;;;;;;8.20;0.77;;;;;;;;;;5014375;28;20294;-57
2021/03/31 15:34:29;;;;;;;1.30;0.47;;;;;;;;;;5030074;28;20222;-57
2021/03/31 15:36:55;;;;;;;1.00;0.57;;;;;;;;;;5015085;28;20256;-57
2021/03/31 15:39:22;;;;;;;0.00;0.00;;;;;;;;;;5017172;28;20220;-57
2021/03/31 15:41:50;;;;;;;4.90;1.03;;;;;;;;;;5013783;28;20262;-57
2021/03/31 15:44:17;;;;;;;2.70;0.83;;;;;;;;;;5013358;28;20183;-57
2021/03/31 15:46:52;;;;;;;1.33;0.87;;;;;;;;;;5015075;28;20189;-57
2021/03/31 15:49:19;;;;;;;0.03;0.03;;;;;;;;;;5014936;28;20736;-57
2021/03/31 15:51:46;;;;;;;4.23;1.10;;;;;;;;;;5013372;28;20197;-57
2021/03/31 15:54:12;;;;;;;0.93;0.83;;;;;;;;;;5014942;28;20186;-57
2021/03/31 15:56:39;;;;;;;1.90;0.83;;;;;;;;;;5015705;28;20177;-57
2021/03/31 15:59:06;;;;;;;1.37;0.67;;;;;;;;;;5011649;28;20961;-57
2021/03/31 16:01:32;;;;;;;1.63;0.57;;;;;;;;;;5014994;28;20190;-57
2021/03/31 16:04:05;;;;;;;0.07;0.07;;;;;;;;;;5013370;28;20190;-58
2021/03/31 16:09:16;;;;;;;3.67;0.93;;;;;;;;;;5011090;28;20210;-57
2021/03/31 16:11:43;;;;;;;0.93;0.67;;;;;;;;;;5014593;28;20180;-57
2021/03/31 16:14:09;;;;;;;1.27;0.40;;;;;;;;;;5013917;28;20212;-57
2021/03/31 16:16:36;;;;;;;0.67;0.37;;;;;;;;;;5013793;28;20184;-56
2021/03/31 16:19:03;;;;;;;6.10;1.47;;;;;;;;;;5009381;28;20192;-57
2021/03/31 16:21:29;;;;;;;0.77;0.37;;;;;;;;;;5010192;28;20191;-57
2021/03/31 16:23:58;;;;;;;1.63;0.43;;;;;;;;;;5011664;28;20182;-56
2021/03/31 16:26:24;;;;;;;3.20;1.23;;;;;;;;;;5012188;28;20189;-56
2021/03/31 16:31:28;;;;;;;7.57;1.03;;;;;;;;;;5010456;28;20291;-56
2021/03/31 16:33:56;;;;;;;1.90;0.73;;;;;;;;;;5009601;28;20211;-57
2021/03/31 16:36:24;;;;;;;0.87;0.87;;;;;;;;;;5011436;28;20185;-57
2021/03/31 16:38:51;;;;;;;2.33;0.60;;;;;;;;;;5007206;28;20823;-56
2021/03/31 16:41:18;;;;;;;5.00;1.83;;;;;;;;;;5012099;28;20184;-57
2021/03/31 16:43:45;;;;;;;0.40;0.40;;;;;;;;;;5010639;28;20181;-56
2021/03/31 16:46:11;;;;;;;2.37;1.00;;;;;;;;;;5010376;28;20177;-57
2021/03/31 16:48:38;;;;;;;1.90;1.80;;;;;;;;;;5040633;28;20202;-57
2021/03/31 16:51:05;;;;;;;3.10;0.67;;;;;;;;;;5009295;28;20205;-56
2021/03/31 16:53:32;;;;;;;0.87;0.70;;;;;;;;;;5011001;28;20177;-57
2021/03/31 16:55:58;;;;;;;1.07;0.50;;;;;;;;;;5010502;28;20205;-56
2021/03/31 16:58:25;;;;;;;7.10;1.03;;;;;;;;;;5013103;28;20242;-56
2021/03/31 17:00:51;;;;;;;3.77;3.50;;;;;;;;;;5009074;28;20263;-56
2021/03/31 17:03:18;;;;;;;2.40;1.50;;;;;;;;;;5008694;28;20181;-56
2021/03/31 17:05:44;;;;;;;2.40;1.63;;;;;;;;;;5007706;28;20184;-57
2021/03/31 17:08:11;;;;;;;1.43;0.97;;;;;;;;;;5010953;28;20208;-57
2021/03/31 17:10:41;;;;;;;0.47;0.40;;;;;;;;;;5008280;28;20227;-57
2021/03/31 17:13:08;;;;;;;1.07;0.87;;;;;;;;;;5007723;28;20243;-57
2021/03/31 17:15:34;;;;;;;0.83;0.43;;;;;;;;;;5006902;28;20197;-57
2021/03/31 17:18:01;;;;;;;7.33;1.83;;;;;;;;;;5006602;28;20193;-56
2021/03/31 17:20:28;;;;;;;3.50;0.77;;;;;;;;;;5008868;28;20428;-56
2021/03/31 17:22:54;;;;;;;0.40;0.40;;;;;;;;;;5009153;28;20338;-57
2021/03/31 17:25:21;;;;;;;7.53;1.37;;;;;;;;;;5009137;28;20283;-57
2021/03/31 17:27:47;;;;;;;0.10;0.10;;;;;;;;;;5010112;28;20740;-57
2021/03/31 17:30:15;;;;;;;4.80;1.80;;;;;;;;;;5019349;28;20218;-57
2021/03/31 17:32:46;;;;;;;6.33;1.00;;;;;;;;;;5007645;28;20826;-57
2021/03/31 17:35:17;;;;;;;1.40;0.13;;;;;;;;;;5007434;28;20181;-57
2021/03/31 17:37:45;;;;;;;6.10;0.57;;;;;;;;;;5010495;28;20763;-58
2021/03/31 17:40:12;;;;;;;5.40;2.17;;;;;;;;;;5009740;28;20188;-57
2021/03/31 17:42:39;;;;;;;4.13;0.67;;;;;;;;;;5022302;28;20189;-57
2021/03/31 17:45:07;;;;;;;0.23;0.23;;;;;;;;;;5008327;28;20192;-57
2021/03/31 17:47:34;;;;;;;1.43;1.33;;;;;;;;;;5011464;28;21017;-57
2021/03/31 17:50:02;;;;;;;0.10;0.00;;;;;;;;;;5007709;28;20194;-57
2021/03/31 17:52:28;;;;;;;3.00;0.83;;;;;;;;;;5005228;28;20194;-58
2021/03/31 17:54:55;;;;;;;33.67;2.53;;;;;;;;;;5004020;28;20185;-57
2021/03/31 17:57:21;;;;;;;0.23;0.17;;;;;;;;;;5009125;28;20188;-58
2021/03/31 17:59:48;;;;;;;4.93;1.47;;;;;;;;;;5003630;28;20792;-58
2021/03/31 18:02:14;;;;;;;0.10;0.10;;;;;;;;;;5023331;28;20177;-57
2021/03/31 18:04:41;;;;;;;3.67;1.07;;;;;;;;;;5005413;28;20394;-57
2021/03/31 18:07:07;;;;;;;6.13;0.50;;;;;;;;;;5009884;28;20220;-57
2021/03/31 18:09:34;;;;;;;0.73;0.73;;;;;;;;;;5009881;28;20272;-57
2021/03/31 18:12:00;;;;;;;5.13;0.90;;;;;;;;;;5008191;28;20184;-57
2021/03/31 18:14:28;;;;;;;5.93;0.80;;;;;;;;;;5006015;28;20268;-57
2021/03/31 18:16:56;;;;;;;0.33;0.33;;;;;;;;;;5014994;28;20178;-56
2021/03/31 18:19:23;;;;;;;0.23;0.23;;;;;;;;;;5009822;28;20431;-57
2021/03/31 18:21:50;;;;;;;0.20;0.20;;;;;;;;;;5010619;28;20189;-57
2021/03/31 18:24:16;;;;;;;0.47;0.40;;;;;;;;;;5013081;28;20188;-59
2021/03/31 18:26:43;;;;;;;3.53;0.93;;;;;;;;;;5009624;28;20873;-58